Time;durP1;ratioP1;P1;durP2;ratioP2;P2;SDS_P1;SDS_P2;PMS_P1;PMS_P2;Temp;Humidity;BMP_temperature;BMP_pressure;BME280_temperature;BME280_humidity;BME280_pressure;Samples;Min_cycle;Max_cycle;Signal;HPM_P1;HPM_P2
2022/03/07 00:00:04;;;;;;;;;;;2.20;99.90;;;;;;6128813;23;20329;-87
2022/03/07 00:02:33;;;;;;;;;;;1.40;99.90;;;;;;6128524;23;20458;-88
2022/03/07 00:05:00;;;;;;;;;;;2.20;99.90;;;;;;6128081;23;19976;-87
2022/03/07 00:07:26;;;;;;;;;;;2.30;99.90;;;;;;6128301;23;19952;-87
2022/03/07 00:09:53;;;;;;;;;;;1.90;99.90;;;;;;6128844;23;19984;-88
2022/03/07 00:12:20;;;;;;;;;;;0.30;99.90;;;;;;6128355;23;19921;-88
2022/03/07 00:14:48;;;;;;;;;;;3.30;99.90;;;;;;6127764;23;19921;-88
2022/03/07 00:17:15;;;;;;;;;;;1.90;99.90;;;;;;6127874;23;20237;-87
2022/03/07 00:19:43;;;;;;;;;;;2.00;99.90;;;;;;6127892;23;20027;-86
2022/03/07 00:22:10;;;;;;;;;;;3.40;99.90;;;;;;6128631;23;19925;-86
2022/03/07 00:24:37;;;;;;;;;;;2.00;99.90;;;;;;6128129;23;19968;-87
2022/03/07 00:27:04;;;;;;;;;;;2.00;99.90;;;;;;6128445;23;19921;-87
2022/03/07 00:29:31;;;;;;;;;;;2.00;99.90;;;;;;6127911;23;19991;-86
2022/03/07 00:31:59;;;;;;;;;;;2.00;99.90;;;;;;6129009;23;19932;-86
2022/03/07 00:34:25;;;;;;;;;;;2.10;99.90;;;;;;6128567;23;19921;-86
2022/03/07 00:36:54;;;;;;;;;;;3.50;99.90;;;;;;6128633;23;19928;-86
2022/03/07 00:39:21;;;;;;;;;;;2.00;99.90;;;;;;6127109;23;19928;-87
2022/03/07 00:41:47;;;;;;;;;;;2.10;99.90;;;;;;6126583;23;19931;-88
2022/03/07 00:44:14;;;;;;;;;;;3.90;99.90;;;;;;6126053;23;19921;-87
2022/03/07 00:46:41;;;;;;;;;;;2.10;99.90;;;;;;6127511;23;19921;-88
2022/03/07 00:49:08;;;;;;;;;;;2.80;99.90;;;;;;6127673;23;19921;-86
2022/03/07 00:51:35;;;;;;;;;;;2.70;99.90;;;;;;6127681;23;19953;-86
2022/03/07 00:54:03;;;;;;;;;;;2.00;99.90;;;;;;6127944;23;19921;-86
2022/03/07 00:56:30;;;;;;;;;;;3.70;99.90;;;;;;6127356;23;19920;-88
2022/03/07 00:58:56;;;;;;;;;;;1.70;99.90;;;;;;6127430;23;20301;-88
2022/03/07 01:01:23;;;;;;;;;;;-0.70;99.90;;;;;;6126950;23;19925;-87
2022/03/07 01:03:51;;;;;;;;;;;1.70;99.90;;;;;;6126657;23;19956;-88
2022/03/07 01:06:18;;;;;;;;;;;1.80;99.90;;;;;;6127112;23;19925;-87
2022/03/07 01:08:44;;;;;;;;;;;1.70;99.90;;;;;;6127099;23;19967;-86
2022/03/07 01:11:13;;;;;;;;;;;1.80;99.90;;;;;;6127740;23;20236;-88
2022/03/07 01:13:39;;;;;;;;;;;2.20;99.90;;;;;;6127365;23;19925;-88
2022/03/07 01:16:06;;;;;;;;;;;1.60;99.90;;;;;;6127037;23;19921;-85
2022/03/07 01:18:33;;;;;;;;;;;2.00;99.90;;;;;;6127224;23;19960;-86
2022/03/07 01:21:00;;;;;;;;;;;1.60;99.90;;;;;;6127032;23;19921;-87
2022/03/07 01:23:27;;;;;;;;;;;1.50;99.90;;;;;;6127283;23;19921;-86
2022/03/07 01:25:54;;;;;;;;;;;3.40;99.90;;;;;;6126696;23;19931;-87
2022/03/07 01:28:22;;;;;;;;;;;1.50;99.90;;;;;;6128693;23;19985;-87
2022/03/07 01:30:49;;;;;;;;;;;1.60;99.90;;;;;;6128507;23;19921;-87
2022/03/07 01:33:16;;;;;;;;;;;3.40;99.90;;;;;;6128812;23;19976;-87
2022/03/07 01:35:43;;;;;;;;;;;2.60;99.90;;;;;;6128624;23;19925;-87
2022/03/07 01:38:10;;;;;;;;;;;1.60;99.90;;;;;;6128812;23;19935;-86
2022/03/07 01:40:37;;;;;;;;;;;1.50;99.90;;;;;;6128880;23;20218;-87
2022/03/07 01:43:06;;;;;;;;;;;1.80;99.90;;;;;;6128557;23;19925;-86
2022/03/07 01:45:34;;;;;;;;;;;1.50;99.90;;;;;;6128260;23;19925;-86
2022/03/07 01:48:01;;;;;;;;;;;2.20;99.90;;;;;;6128564;23;19972;-87
2022/03/07 01:50:28;;;;;;;;;;;1.60;99.90;;;;;;6128401;23;19921;-88
2022/03/07 01:52:55;;;;;;;;;;;1.60;99.90;;;;;;6128354;23;19921;-86
2022/03/07 01:55:22;;;;;;;;;;;3.50;99.90;;;;;;6128517;23;19921;-87
2022/03/07 01:57:50;;;;;;;;;;;1.90;99.90;;;;;;6129006;23;20289;-87
2022/03/07 02:00:20;;;;;;;;;;;1.20;99.90;;;;;;6128380;23;19921;-88
2022/03/07 02:02:49;;;;;;;;;;;1.50;99.90;;;;;;6128134;23;19944;-87
2022/03/07 02:05:16;;;;;;;;;;;3.10;99.90;;;;;;6128772;23;20280;-88
2022/03/07 02:07:43;;;;;;;;;;;1.30;99.90;;;;;;6128937;23;19921;-88
2022/03/07 02:10:10;;;;;;;;;;;1.80;99.90;;;;;;6128743;23;19928;-87
2022/03/07 02:12:38;;;;;;;;;;;1.30;99.90;;;;;;6129310;23;19953;-88
2022/03/07 02:15:07;;;;;;;;;;;1.10;99.90;;;;;;6129448;23;19921;-88
2022/03/07 02:17:33;;;;;;;;;;;1.10;99.90;;;;;;6127883;23;19929;-87
2022/03/07 02:20:02;;;;;;;;;;;1.50;99.90;;;;;;6128765;23;19988;-87
2022/03/07 02:22:30;;;;;;;;;;;0.20;99.90;;;;;;6128248;23;19921;-87
2022/03/07 02:24:57;;;;;;;;;;;1.00;99.90;;;;;;6128107;23;19968;-87
2022/03/07 02:27:23;;;;;;;;;;;0.90;99.90;;;;;;6128660;23;19924;-87
2022/03/07 02:29:50;;;;;;;;;;;0.80;99.90;;;;;;6128059;23;19921;-87
2022/03/07 02:32:17;;;;;;;;;;;2.00;99.90;;;;;;6128077;23;19921;-86
2022/03/07 02:34:44;;;;;;;;;;;1.20;99.90;;;;;;6128896;23;19925;-88
2022/03/07 02:37:11;;;;;;;;;;;0.40;99.90;;;;;;6129068;23;19968;-89
2022/03/07 02:39:39;;;;;;;;;;;1.00;99.90;;;;;;6128487;23;19925;-87
2022/03/07 02:42:06;;;;;;;;;;;3.10;99.90;;;;;;6128992;23;19921;-88
2022/03/07 02:44:33;;;;;;;;;;;0.30;99.90;;;;;;6128777;23;20364;-88
2022/03/07 02:46:59;;;;;;;;;;;1.10;99.90;;;;;;6128630;23;20333;-88
2022/03/07 02:49:26;;;;;;;;;;;2.20;99.90;;;;;;6128849;23;19984;-88
2022/03/07 02:51:53;;;;;;;;;;;0.30;99.90;;;;;;6128613;23;19933;-88
2022/03/07 02:54:20;;;;;;;;;;;1.80;99.90;;;;;;6128241;23;19986;-87
2022/03/07 02:56:48;;;;;;;;;;;0.80;99.90;;;;;;6128272;23;19925;-88
2022/03/07 02:59:15;;;;;;;;;;;0.70;99.90;;;;;;6128662;23;20289;-88
2022/03/07 03:01:43;;;;;;;;;;;1.70;99.90;;;;;;6127577;23;19921;-87
2022/03/07 03:04:09;;;;;;;;;;;0.70;99.90;;;;;;6127823;23;20003;-88
2022/03/07 03:06:36;;;;;;;;;;;0.70;99.90;;;;;;6128390;23;19984;-87
2022/03/07 03:09:03;;;;;;;;;;;1.10;99.90;;;;;;6129154;23;19925;-87
2022/03/07 03:11:31;;;;;;;;;;;0.60;99.90;;;;;;6128660;23;19944;-88
2022/03/07 03:14:00;;;;;;;;;;;0.60;99.90;;;;;;6128179;23;19925;-87
2022/03/07 03:16:27;;;;;;;;;;;0.60;99.90;;;;;;6128186;23;19972;-87
2022/03/07 03:18:54;;;;;;;;;;;0.60;99.90;;;;;;6128176;23;19937;-87
2022/03/07 03:21:21;;;;;;;;;;;0.60;99.90;;;;;;6127979;23;19928;-87
2022/03/07 03:23:48;;;;;;;;;;;1.50;99.90;;;;;;6127482;23;19964;-88
2022/03/07 03:26:15;;;;;;;;;;;1.50;99.90;;;;;;6115860;23;20356;-86
2022/03/07 03:28:41;;;;;;;;;;;0.70;99.90;;;;;;6128235;23;19925;-87
2022/03/07 03:31:11;;;;;;;;;;;0.70;99.90;;;;;;6128421;23;19925;-88
2022/03/07 03:33:38;;;;;;;;;;;0.70;99.90;;;;;;6128351;23;19920;-88
2022/03/07 03:36:05;;;;;;;;;;;1.20;99.90;;;;;;6128624;23;20376;-88
2022/03/07 03:38:32;;;;;;;;;;;0.90;99.90;;;;;;6128289;23;20388;-85
2022/03/07 03:40:59;;;;;;;;;;;1.00;99.90;;;;;;6128260;23;19972;-87
2022/03/07 03:43:25;;;;;;;;;;;1.00;99.90;;;;;;6128261;23;19936;-87
2022/03/07 03:45:52;;;;;;;;;;;0.90;99.90;;;;;;6128564;23;19920;-88
2022/03/07 03:48:20;;;;;;;;;;;0.90;99.90;;;;;;6129068;23;19921;-87
2022/03/07 03:50:47;;;;;;;;;;;0.60;99.90;;;;;;6130896;23;19994;-86
2022/03/07 03:53:14;;;;;;;;;;;0.80;99.90;;;;;;6131310;23;19972;-88
2022/03/07 03:55:41;;;;;;;;;;;0.80;99.90;;;;;;6130780;23;19921;-87
2022/03/07 03:58:07;;;;;;;;;;;0.40;99.90;;;;;;6130765;23;19921;-88
2022/03/07 04:00:34;;;;;;;;;;;1.10;99.90;;;;;;6129613;23;20524;-87
2022/03/07 04:03:01;;;;;;;;;;;1.20;99.90;;;;;;6129543;23;19968;-87
2022/03/07 04:05:29;;;;;;;;;;;-0.40;99.90;;;;;;6130649;23;19924;-87
2022/03/07 04:07:56;;;;;;;;;;;1.60;99.90;;;;;;6130805;23;20304;-87
2022/03/07 04:10:23;;;;;;;;;;;2.90;99.90;;;;;;6129870;23;19963;-86
2022/03/07 04:12:49;;;;;;;;;;;1.10;99.90;;;;;;6129659;23;19921;-86
2022/03/07 04:15:16;;;;;;;;;;;1.10;99.90;;;;;;6129813;23;19920;-87
2022/03/07 04:17:46;;;;;;;;;;;2.70;99.90;;;;;;6129461;23;19920;-87
2022/03/07 04:20:14;;;;;;;;;;;2.30;99.90;;;;;;6128989;23;19928;-86
2022/03/07 04:22:42;;;;;;;;;;;2.30;99.90;;;;;;6128260;23;19951;-86
2022/03/07 04:25:09;;;;;;;;;;;2.20;99.90;;;;;;6127814;23;19924;-87
2022/03/07 04:27:36;;;;;;;;;;;1.20;99.90;;;;;;6128165;23;19976;-86
2022/03/07 04:30:05;;;;;;;;;;;1.20;99.90;;;;;;6127153;23;19920;-87
2022/03/07 04:32:33;;;;;;;;;;;1.20;99.90;;;;;;6127895;23;20336;-87
2022/03/07 04:35:03;;;;;;;;;;;1.10;99.90;;;;;;6127780;23;19952;-86
2022/03/07 04:37:31;;;;;;;;;;;1.20;99.90;;;;;;6128024;23;19932;-87
2022/03/07 04:40:00;;;;;;;;;;;1.40;99.90;;;;;;6128141;23;20247;-87
2022/03/07 04:42:26;;;;;;;;;;;1.70;99.90;;;;;;6127267;23;20312;-86
2022/03/07 04:44:53;;;;;;;;;;;3.00;99.90;;;;;;6127732;23;19921;-86
2022/03/07 04:47:20;;;;;;;;;;;0.50;99.90;;;;;;6127995;23;20352;-88
2022/03/07 04:49:47;;;;;;;;;;;1.50;99.90;;;;;;6128016;23;19976;-87
2022/03/07 04:52:13;;;;;;;;;;;1.50;99.90;;;;;;6128225;23;19921;-86
2022/03/07 04:54:40;;;;;;;;;;;1.70;99.90;;;;;;6128320;23;19921;-87
2022/03/07 04:57:08;;;;;;;;;;;1.70;99.90;;;;;;6127950;23;20384;-86
2022/03/07 04:59:35;;;;;;;;;;;1.70;99.90;;;;;;6128006;23;19925;-87
2022/03/07 05:02:02;;;;;;;;;;;2.40;99.90;;;;;;6128423;23;19924;-87
2022/03/07 05:04:29;;;;;;;;;;;1.90;99.90;;;;;;6129935;23;19924;-88
2022/03/07 05:06:55;;;;;;;;;;;3.30;99.90;;;;;;6129336;23;20296;-87
2022/03/07 05:09:22;;;;;;;;;;;4.00;99.90;;;;;;6129919;23;19921;-87
2022/03/07 05:11:49;;;;;;;;;;;1.70;99.90;;;;;;6129659;23;19921;-87
2022/03/07 05:14:18;;;;;;;;;;;1.80;99.90;;;;;;6129660;23;19929;-87
2022/03/07 05:16:45;;;;;;;;;;;1.70;99.90;;;;;;6129253;23;19999;-88
2022/03/07 05:19:11;;;;;;;;;;;2.00;99.90;;;;;;6128982;23;19920;-88
2022/03/07 05:21:38;;;;;;;;;;;1.70;99.90;;;;;;6129175;23;20302;-87
2022/03/07 05:24:06;;;;;;;;;;;3.10;99.90;;;;;;6128672;23;19925;-88
2022/03/07 05:26:32;;;;;;;;;;;1.90;99.90;;;;;;6129231;23;20214;-89
2022/03/07 05:28:59;;;;;;;;;;;2.90;99.90;;;;;;6129387;23;19936;-87
2022/03/07 05:31:27;;;;;;;;;;;3.50;99.90;;;;;;6130074;23;19921;-88
2022/03/07 05:33:54;;;;;;;;;;;1.90;99.90;;;;;;6130058;23;19921;-89
2022/03/07 05:36:21;;;;;;;;;;;2.90;99.90;;;;;;6129805;23;19924;-87
2022/03/07 05:38:48;;;;;;;;;;;1.90;99.90;;;;;;6129554;23;19921;-88
2022/03/07 05:41:17;;;;;;;;;;;2.00;99.90;;;;;;6129524;23;19929;-87
2022/03/07 05:43:44;;;;;;;;;;;3.30;99.90;;;;;;6129467;23;19921;-86
2022/03/07 05:46:11;;;;;;;;;;;2.00;99.90;;;;;;6129211;23;20400;-87
2022/03/07 05:48:39;;;;;;;;;;;1.90;99.90;;;;;;6129383;23;19928;-87
2022/03/07 05:51:06;;;;;;;;;;;2.00;99.90;;;;;;6129114;23;20334;-86
2022/03/07 05:53:32;;;;;;;;;;;3.00;99.90;;;;;;6129278;23;19921;-87
2022/03/07 05:56:01;;;;;;;;;;;2.20;99.90;;;;;;6129571;23;19921;-86
2022/03/07 05:58:28;;;;;;;;;;;2.20;99.90;;;;;;6129287;23;19921;-86
2022/03/07 06:00:55;;;;;;;;;;;2.20;99.90;;;;;;6129443;23;19921;-87
2022/03/07 06:03:22;;;;;;;;;;;2.20;99.90;;;;;;6129244;23;19975;-86
2022/03/07 06:05:50;;;;;;;;;;;2.30;99.90;;;;;;6129388;23;20296;-87
2022/03/07 06:08:17;;;;;;;;;;;2.30;99.90;;;;;;6129498;23;19975;-88
2022/03/07 06:10:44;;;;;;;;;;;2.30;99.90;;;;;;6129363;23;19928;-87
2022/03/07 06:13:11;;;;;;;;;;;4.20;99.90;;;;;;6128139;23;20265;-88
2022/03/07 06:15:43;;;;;;;;;;;3.80;99.90;;;;;;6129475;23;19921;-86
2022/03/07 06:18:10;;;;;;;;;;;2.80;99.90;;;;;;6129125;23;19932;-88
2022/03/07 06:20:37;;;;;;;;;;;2.30;99.90;;;;;;6128630;23;19925;-87
2022/03/07 06:23:05;;;;;;;;;;;2.30;99.90;;;;;;6128371;23;19925;-87
2022/03/07 06:25:34;;;;;;;;;;;2.80;99.90;;;;;;6128439;23;19921;-86
2022/03/07 06:28:01;;;;;;;;;;;2.30;99.90;;;;;;6129134;23;19997;-87
2022/03/07 06:30:28;;;;;;;;;;;2.30;99.90;;;;;;6128677;23;19920;-87
2022/03/07 06:32:55;;;;;;;;;;;2.30;99.90;;;;;;6128826;23;19928;-88
2022/03/07 06:35:21;;;;;;;;;;;3.70;99.90;;;;;;6128916;23;19925;-86
2022/03/07 06:37:48;;;;;;;;;;;2.30;99.90;;;;;;6128723;23;19976;-88
2022/03/07 06:40:17;;;;;;;;;;;2.30;99.90;;;;;;6130523;23;19921;-87
2022/03/07 06:42:46;;;;;;;;;;;2.70;99.90;;;;;;6129129;23;19996;-87
2022/03/07 06:45:13;;;;;;;;;;;2.50;99.90;;;;;;6129229;23;20000;-87
2022/03/07 06:47:40;;;;;;;;;;;2.40;99.90;;;;;;6128779;23;19924;-86
2022/03/07 06:50:07;;;;;;;;;;;3.70;99.90;;;;;;6128917;23;19925;-87
2022/03/07 06:52:34;;;;;;;;;;;2.50;99.90;;;;;;6128714;23;19921;-89
2022/03/07 06:55:00;;;;;;;;;;;2.60;99.90;;;;;;6129841;23;19931;-87
2022/03/07 06:57:30;;;;;;;;;;;4.50;99.90;;;;;;6128949;23;19988;-87
2022/03/07 06:59:56;;;;;;;;;;;2.60;99.90;;;;;;6128621;23;19929;-88
2022/03/07 07:02:23;;;;;;;;;;;3.10;99.90;;;;;;6128870;23;19920;-87
2022/03/07 07:04:50;;;;;;;;;;;3.90;99.90;;;;;;6129851;23;19971;-87
2022/03/07 07:07:17;;;;;;;;;;;2.70;99.90;;;;;;6129353;23;20254;-87
2022/03/07 07:09:44;;;;;;;;;;;2.70;99.90;;;;;;6128860;23;19975;-88
2022/03/07 07:12:10;;;;;;;;;;;2.80;99.90;;;;;;6129128;23;19928;-88
2022/03/07 07:14:39;;;;;;;;;;;2.80;99.90;;;;;;6128845;23;19921;-88
2022/03/07 07:17:05;;;;;;;;;;;2.80;99.90;;;;;;6129474;23;20096;-86
2022/03/07 07:19:33;;;;;;;;;;;3.60;99.90;;;;;;6129341;23;19920;-86
2022/03/07 07:21:59;;;;;;;;;;;2.80;99.90;;;;;;6129446;23;20257;-86
2022/03/07 07:24:26;;;;;;;;;;;2.40;99.90;;;;;;6128135;23;19921;-88
2022/03/07 07:26:53;;;;;;;;;;;2.80;99.90;;;;;;6128170;23;20007;-86
2022/03/07 07:29:20;;;;;;;;;;;4.20;99.90;;;;;;6132337;23;19920;-88
2022/03/07 07:31:48;;;;;;;;;;;2.80;99.90;;;;;;6128820;23;19968;-87
2022/03/07 07:34:15;;;;;;;;;;;3.00;99.90;;;;;;6129226;23;20248;-87
2022/03/07 07:36:42;;;;;;;;;;;4.60;99.90;;;;;;6127954;23;19984;-88
2022/03/07 07:39:09;;;;;;;;;;;3.10;99.90;;;;;;6128109;23;19928;-85
2022/03/07 07:41:35;;;;;;;;;;;4.10;99.90;;;;;;6128197;23;20249;-86
2022/03/07 07:44:03;;;;;;;;;;;3.60;99.90;;;;;;6127753;23;20341;-87
2022/03/07 07:46:30;;;;;;;;;;;3.70;99.90;;;;;;6128149;23;19925;-88
2022/03/07 07:48:58;;;;;;;;;;;3.50;99.90;;;;;;6129048;23;20229;-88
2022/03/07 07:51:25;;;;;;;;;;;3.80;99.90;;;;;;6129556;23;19952;-87
2022/03/07 07:53:52;;;;;;;;;;;3.00;99.90;;;;;;6129200;23;19928;-87
2022/03/07 07:56:19;;;;;;;;;;;4.40;99.90;;;;;;6128901;23;19921;-87
2022/03/07 07:58:46;;;;;;;;;;;4.10;99.90;;;;;;6129289;23;19921;-87
2022/03/07 08:01:14;;;;;;;;;;;3.90;99.90;;;;;;6128223;23;19920;-86
2022/03/07 08:03:41;;;;;;;;;;;3.70;99.90;;;;;;6128404;23;19960;-87
2022/03/07 08:06:09;;;;;;;;;;;3.70;99.90;;;;;;6130696;23;19931;-87
2022/03/07 08:08:36;;;;;;;;;;;4.10;99.90;;;;;;6127785;23;19925;-86
2022/03/07 08:11:03;;;;;;;;;;;4.70;99.90;;;;;;6132108;23;19991;-87
2022/03/07 08:13:32;;;;;;;;;;;4.60;99.90;;;;;;6129599;23;19921;-89
2022/03/07 08:16:01;;;;;;;;;;;4.20;99.90;;;;;;6130423;23;23997;-86
2022/03/07 08:18:28;;;;;;;;;;;4.40;99.90;;;;;;6129392;23;19943;-87
2022/03/07 08:20:57;;;;;;;;;;;4.90;99.90;;;;;;6128380;23;20272;-86
2022/03/07 08:23:25;;;;;;;;;;;2.40;99.90;;;;;;6128764;23;19996;-88
2022/03/07 08:25:52;;;;;;;;;;;4.50;99.90;;;;;;6130691;23;20353;-87
2022/03/07 08:28:19;;;;;;;;;;;5.50;99.90;;;;;;6129316;23;19927;-86
2022/03/07 08:30:46;;;;;;;;;;;5.20;99.90;;;;;;6130588;23;19928;-86
2022/03/07 08:33:13;;;;;;;;;;;5.10;99.90;;;;;;6130019;23;19921;-88
2022/03/07 08:35:40;;;;;;;;;;;4.80;99.90;;;;;;6130943;23;20000;-88
2022/03/07 08:38:07;;;;;;;;;;;3.10;99.90;;;;;;6130585;23;19944;-87
2022/03/07 08:40:35;;;;;;;;;;;5.40;99.90;;;;;;6130409;23;19920;-89
2022/03/07 08:43:06;;;;;;;;;;;5.00;99.90;;;;;;6129644;23;19993;-87
2022/03/07 08:46:01;;;;;;;;;;;5.00;99.90;;;;;;6132192;23;19921;-91
2022/03/07 08:48:29;;;;;;;;;;;5.40;99.90;;;;;;6131940;23;19972;-86
2022/03/07 08:50:56;;;;;;;;;;;5.20;99.90;;;;;;6130833;23;19953;-89
2022/03/07 08:53:29;;;;;;;;;;;5.50;99.90;;;;;;6128357;23;19921;-88
2022/03/07 08:56:01;;;;;;;;;;;5.60;99.90;;;;;;6132061;23;19999;-91
2022/03/07 08:58:38;;;;;;;;;;;5.60;99.90;;;;;;6129448;23;19920;-87
2022/03/07 09:01:06;;;;;;;;;;;5.60;99.90;;;;;;6130892;23;19921;-87
2022/03/07 09:06:23;;;;;;;;;;;6.30;99.90;;;;;;6133591;23;20439;-91
2022/03/07 09:08:49;;;;;;;;;;;6.40;99.90;;;;;;6124113;23;19925;-87
2022/03/07 09:11:21;;;;;;;;;;;6.50;99.90;;;;;;6125171;23;19921;-89
2022/03/07 09:13:48;;;;;;;;;;;6.30;99.90;;;;;;6123078;23;19932;-88
2022/03/07 09:16:21;;;;;;;;;;;6.30;99.90;;;;;;6099336;23;19992;-87
2022/03/07 09:19:02;;;;;;;;;;;6.50;99.90;;;;;;6125920;23;20003;-88
2022/03/07 09:21:31;;;;;;;;;;;6.60;99.90;;;;;;6123984;23;19968;-87
2022/03/07 09:23:58;;;;;;;;;;;6.40;99.90;;;;;;6126639;23;19929;-87
2022/03/07 09:26:32;;;;;;;;;;;5.80;99.90;;;;;;6124740;23;19927;-87
2022/03/07 09:29:11;;;;;;;;;;;6.60;99.90;;;;;;6126452;23;19972;-87
2022/03/07 09:31:38;;;;;;;;;;;6.30;99.90;;;;;;6125804;23;19935;-89
2022/03/07 09:34:05;;;;;;;;;;;6.50;99.90;;;;;;6123977;23;19924;-87
2022/03/07 09:36:32;;;;;;;;;;;6.80;99.90;;;;;;6123560;23;20602;-87
2022/03/07 09:39:02;;;;;;;;;;;6.70;99.90;;;;;;6125446;23;19921;-87
2022/03/07 09:41:30;;;;;;;;;;;6.30;99.90;;;;;;6126431;23;19921;-87
2022/03/07 09:43:57;;;;;;;;;;;6.50;99.90;;;;;;6126122;23;19944;-88
2022/03/07 09:46:24;;;;;;;;;;;6.40;99.90;;;;;;6123754;23;19925;-88
2022/03/07 09:48:51;;;;;;;;;;;6.30;99.90;;;;;;6109407;23;20337;-87
2022/03/07 09:51:23;;;;;;;;;;;6.40;99.90;;;;;;6124231;23;19925;-88
2022/03/07 09:54:02;;;;;;;;;;;;;;;;;;;;;
2022/03/07 09:56:35;;;;;;;;;;;6.40;99.90;;;;;;6132396;23;20295;-92
2022/03/07 09:59:04;;;;;;;;;;;8.50;99.90;;;;;;6132175;23;19984;-89
2022/03/07 10:01:33;;;;;;;;;;;6.40;99.90;;;;;;6126480;23;19925;-88
2022/03/07 10:04:06;;;;;;;;;;;6.80;99.90;;;;;;6127254;23;19972;-88
2022/03/07 10:06:43;;;;;;;;;;;6.60;99.90;;;;;;6129833;23;19988;-90
2022/03/07 10:09:10;;;;;;;;;;;7.00;99.90;;;;;;6127308;23;19931;-88
2022/03/07 10:11:38;;;;;;;;;;;7.20;99.90;;;;;;6130926;23;19968;-88
2022/03/07 10:14:05;;;;;;;;;;;6.90;99.90;;;;;;6126691;23;19944;-87
2022/03/07 10:16:44;;;;;;;;;;;7.20;99.90;;;;;;6126845;23;19928;-88
2022/03/07 10:19:18;;;;;;;;;;;7.00;99.90;;;;;;6126804;23;19925;-89
2022/03/07 10:21:46;;;;;;;;;;;9.60;99.90;;;;;;6127996;23;19980;-88
2022/03/07 10:24:15;;;;;;;;;;;7.00;99.90;;;;;;6129877;23;19968;-86
2022/03/07 10:26:59;;;;;;;;;;;6.90;99.90;;;;;;6127513;23;20392;-92
2022/03/07 10:29:28;;;;;;;;;;;6.80;99.90;;;;;;6127814;23;19921;-87
2022/03/07 10:31:55;;;;;;;;;;;7.00;99.90;;;;;;6127719;23;20348;-87
2022/03/07 10:34:24;;;;;;;;;;;7.00;99.90;;;;;;6129800;23;19929;-88
2022/03/07 10:36:52;;;;;;;;;;;7.10;99.90;;;;;;6126805;23;19952;-89
2022/03/07 10:39:23;;;;;;;;;;;8.80;99.90;;;;;;6126026;23;19936;-88
2022/03/07 10:41:50;;;;;;;;;;;7.70;99.90;;;;;;6130523;23;20348;-89
2022/03/07 10:44:31;;;;;;;;;;;7.30;99.90;;;;;;6129958;23;19921;-88
2022/03/07 10:47:10;;;;;;;;;;;7.10;99.90;;;;;;6126593;23;20408;-88
2022/03/07 10:49:46;;;;;;;;;;;8.00;99.90;;;;;;6127988;23;19921;-88
2022/03/07 10:52:18;;;;;;;;;;;7.80;99.90;;;;;;6128888;23;19995;-89
2022/03/07 10:54:46;;;;;;;;;;;8.10;99.90;;;;;;6128609;23;19931;-89
2022/03/07 10:57:16;;;;;;;;;;;7.70;99.90;;;;;;6130018;23;19946;-89
2022/03/07 10:59:46;;;;;;;;;;;7.80;99.90;;;;;;6133256;23;19921;-87
2022/03/07 11:02:16;;;;;;;;;;;9.70;99.90;;;;;;6126230;23;19921;-87
2022/03/07 11:04:44;;;;;;;;;;;7.40;99.90;;;;;;6127497;23;19932;-87
2022/03/07 11:07:12;;;;;;;;;;;7.40;99.90;;;;;;6125911;23;20298;-86
2022/03/07 11:09:39;;;;;;;;;;;5.40;99.90;;;;;;6124793;23;19924;-87
2022/03/07 11:12:07;;;;;;;;;;;6.90;99.90;;;;;;6127070;23;20364;-88
2022/03/07 11:14:53;;;;;;;;;;;7.90;99.90;;;;;;6125867;23;19925;-88
2022/03/07 11:17:21;;;;;;;;;;;6.50;99.90;;;;;;6126154;23;19928;-87
2022/03/07 11:19:51;;;;;;;;;;;10.10;99.90;;;;;;6125091;23;19931;-90
2022/03/07 11:22:18;;;;;;;;;;;5.50;99.90;;;;;;6125171;23;19928;-89
2022/03/07 11:24:45;;;;;;;;;;;7.60;99.90;;;;;;6125995;23;19925;-88
2022/03/07 11:27:12;;;;;;;;;;;7.70;99.90;;;;;;6126353;23;19921;-88
2022/03/07 11:29:40;;;;;;;;;;;7.80;99.90;;;;;;6126570;23;19932;-89
2022/03/07 11:32:11;;;;;;;;;;;7.80;99.90;;;;;;6128021;23;19931;-87
2022/03/07 11:34:39;;;;;;;;;;;8.20;99.90;;;;;;6124884;23;19921;-86
2022/03/07 11:37:19;;;;;;;;;;;7.70;99.90;;;;;;6125900;23;20385;-88
2022/03/07 11:39:47;;;;;;;;;;;7.60;99.90;;;;;;6126187;23;19929;-88
2022/03/07 11:42:24;;;;;;;;;;;7.50;99.90;;;;;;6127968;23;20608;-90
2022/03/07 11:45:04;;;;;;;;;;;7.90;99.90;;;;;;6132070;23;20253;-91
2022/03/07 11:47:36;;;;;;;;;;;10.50;99.90;;;;;;6127991;23;19972;-90
2022/03/07 11:50:10;;;;;;;;;;;8.50;99.90;;;;;;6129936;23;19925;-89
2022/03/07 11:52:48;;;;;;;;;;;8.50;99.90;;;;;;6128757;23;19921;-90
2022/03/07 11:55:27;;;;;;;;;;;8.10;99.90;;;;;;6128304;23;19967;-88
2022/03/07 11:58:02;;;;;;;;;;;8.70;99.90;;;;;;6128053;23;19921;-90
2022/03/07 12:00:39;;;;;;;;;;;8.50;99.90;;;;;;6128194;23;19921;-88
2022/03/07 12:03:12;;;;;;;;;;;8.80;99.90;;;;;;6110290;23;19921;-89
2022/03/07 12:05:53;;;;;;;;;;;;;;;;;;;;;
2022/03/07 12:08:25;;;;;;;;;;;5.70;99.90;;;;;;6103242;23;19932;-89
2022/03/07 12:10:54;;;;;;;;;;;8.10;99.90;;;;;;6101304;23;19945;-89
2022/03/07 12:13:46;;;;;;;;;;;;;;;;;;;;;
2022/03/07 12:16:12;;;;;;;;;;;8.40;99.90;;;;;;6098424;23;20249;-89
2022/03/07 12:18:39;;;;;;;;;;;8.10;99.90;;;;;;6098807;23;19921;-90
2022/03/07 12:21:09;;;;;;;;;;;8.30;99.90;;;;;;6089652;23;19931;-91
2022/03/07 12:23:36;;;;;;;;;;;8.50;99.90;;;;;;6098976;23;19965;-86
2022/03/07 12:26:08;;;;;;;;;;;8.80;99.90;;;;;;6077161;23;19929;-89
2022/03/07 12:28:37;;;;;;;;;;;9.30;99.90;;;;;;6090667;23;19932;-89
2022/03/07 12:31:05;;;;;;;;;;;9.90;99.90;;;;;;6064536;23;20832;-89
2022/03/07 12:33:36;;;;;;;;;;;8.90;99.90;;;;;;6089144;23;19926;-89
2022/03/07 12:36:07;;;;;;;;;;;8.30;99.90;;;;;;6098944;23;19921;-88
2022/03/07 12:41:17;;;;;;;;;;;8.60;99.90;;;;;;6060762;23;19953;-90
2022/03/07 12:43:49;;;;;;;;;;;8.40;99.90;;;;;;6069622;23;19921;-90
2022/03/07 12:46:16;;;;;;;;;;;8.60;99.90;;;;;;6099737;23;19940;-91
2022/03/07 12:48:43;;;;;;;;;;;9.20;99.90;;;;;;6098804;23;20603;-89
2022/03/07 12:51:12;;;;;;;;;;;8.30;99.90;;;;;;6097667;23;20361;-90
2022/03/07 12:53:54;;;;;;;;;;;8.30;99.90;;;;;;6099469;23;19944;-91
2022/03/07 12:56:34;;;;;;;;;;;8.40;99.90;;;;;;6096169;23;19922;-92
2022/03/07 12:59:03;;;;;;;;;;;8.60;99.90;;;;;;6101069;23;19932;-89
2022/03/07 13:01:31;;;;;;;;;;;8.70;99.90;;;;;;6105455;23;19921;-89
2022/03/07 13:04:06;;;;;;;;;;;10.30;99.90;;;;;;6100367;23;19925;-90
2022/03/07 13:06:45;;;;;;;;;;;8.30;99.90;;;;;;6102021;23;20631;-87
2022/03/07 13:12:06;;;;;;;;;;;8.90;99.90;;;;;;6101378;23;19936;-87
2022/03/07 13:14:34;;;;;;;;;;;8.50;99.90;;;;;;6105776;23;19925;-88
2022/03/07 13:19:55;;;;;;;;;;;9.20;99.90;;;;;;6106496;23;19926;-88
2022/03/07 13:25:22;;;;;;;;;;;9.30;99.90;;;;;;6107023;23;19928;-87
2022/03/07 13:28:00;;;;;;;;;;;7.80;99.90;;;;;;6141212;23;19980;-90
2022/03/07 13:30:44;;;;;;;;;;;8.90;99.90;;;;;;6139650;23;20233;-92
2022/03/07 13:33:19;;;;;;;;;;;9.50;99.90;;;;;;6136882;23;19969;-86
2022/03/07 13:35:50;;;;;;;;;;;10.40;99.90;;;;;;6139241;23;19921;-90
2022/03/07 13:38:21;;;;;;;;;;;9.30;99.90;;;;;;6134593;23;19988;-88
2022/03/07 13:40:48;;;;;;;;;;;7.80;99.90;;;;;;6134183;23;19921;-91
2022/03/07 13:43:24;;;;;;;;;;;8.90;99.90;;;;;;6134843;23;19977;-90
2022/03/07 13:45:51;;;;;;;;;;;9.20;99.90;;;;;;6133251;23;19959;-88
2022/03/07 13:48:20;;;;;;;;;;;9.20;99.90;;;;;;6135266;23;19940;-89
2022/03/07 13:50:52;;;;;;;;;;;10.00;99.90;;;;;;6136523;23;19929;-90
2022/03/07 13:53:22;;;;;;;;;;;9.30;99.90;;;;;;6133757;23;19996;-90
2022/03/07 13:55:57;;;;;;;;;;;11.70;99.90;;;;;;6136817;23;19920;-90
2022/03/07 13:58:28;;;;;;;;;;;9.50;99.90;;;;;;6135419;23;19945;-86
2022/03/07 14:01:13;;;;;;;;;;;9.20;99.90;;;;;;6131846;23;19924;-91
2022/03/07 14:03:40;;;;;;;;;;;9.40;99.90;;;;;;6127826;23;19956;-89
2022/03/07 14:06:08;;;;;;;;;;;9.60;99.90;;;;;;6133582;23;19921;-89
2022/03/07 14:08:39;;;;;;;;;;;9.40;99.90;;;;;;6134882;23;19959;-90
2022/03/07 14:11:20;;;;;;;;;;;9.30;99.90;;;;;;6138834;23;20399;-91
2022/03/07 14:13:59;;;;;;;;;;;8.90;99.90;;;;;;6131715;23;20362;-88
2022/03/07 14:16:34;;;;;;;;;;;9.00;99.90;;;;;;6129413;23;19948;-88
2022/03/07 14:19:02;;;;;;;;;;;8.90;99.90;;;;;;6131100;23;19929;-88
2022/03/07 14:21:31;;;;;;;;;;;9.20;99.90;;;;;;6129647;23;20004;-89
2022/03/07 14:23:58;;;;;;;;;;;10.80;99.90;;;;;;6133263;23;19925;-89
2022/03/07 14:26:32;;;;;;;;;;;9.10;99.90;;;;;;6130325;23;19932;-88
2022/03/07 14:29:04;;;;;;;;;;;9.20;99.90;;;;;;6131808;23;19921;-89
2022/03/07 14:31:33;;;;;;;;;;;9.50;99.90;;;;;;6129298;23;19965;-92
2022/03/07 14:34:00;;;;;;;;;;;8.70;99.90;;;;;;6123468;23;19925;-89
2022/03/07 14:36:27;;;;;;;;;;;8.60;99.90;;;;;;6100638;23;19954;-87
2022/03/07 14:38:54;;;;;;;;;;;11.10;99.90;;;;;;6130450;23;19921;-89
2022/03/07 14:41:21;;;;;;;;;;;8.70;99.90;;;;;;6130177;23;19921;-86
2022/03/07 14:43:51;;;;;;;;;;;8.80;99.90;;;;;;6129431;23;19979;-88
2022/03/07 14:46:24;;;;;;;;;;;9.30;99.90;;;;;;6130759;23;20008;-88
2022/03/07 14:48:55;;;;;;;;;;;8.70;99.90;;;;;;6128841;23;19925;-87
2022/03/07 14:51:23;;;;;;;;;;;9.10;99.90;;;;;;6128081;23;20335;-88
2022/03/07 14:53:51;;;;;;;;;;;8.30;99.90;;;;;;6127433;23;19927;-88
2022/03/07 14:56:22;;;;;;;;;;;8.60;99.90;;;;;;6130258;23;19948;-87